createdAt,value
2023-05-02T00:02:42.700Z,57.23
2023-05-02T00:07:45.318Z,57.59
2023-05-02T00:12:47.497Z,57.38
2023-05-02T00:17:49.768Z,57.61
2023-05-02T00:22:52.039Z,57.60
2023-05-02T00:27:54.897Z,57.70
2023-05-02T00:32:56.980Z,58.40
2023-05-02T00:37:59.926Z,58.24
2023-05-02T00:43:02.083Z,58.04
2023-05-02T00:48:04.393Z,58.27
2023-05-02T00:53:09.452Z,58.71
2023-05-02T00:58:15.128Z,58.91
2023-05-02T01:03:47.676Z,58.35
2023-05-02T01:09:08.572Z,58.58
2023-05-02T01:14:12.278Z,59.32
2023-05-02T01:19:32.860Z,60.04
2023-05-02T01:24:53.004Z,59.61
2023-05-02T01:29:58.780Z,60.22
2023-05-02T01:35:03.072Z,60.69
2023-05-02T01:40:08.487Z,60.81
2023-05-02T01:45:12.848Z,61.09
2023-05-02T01:50:18.876Z,61.62
2023-05-02T01:55:21.594Z,61.61
2023-05-02T02:00:25.835Z,61.88
2023-05-02T02:05:28.905Z,62.04
2023-05-02T02:10:37.737Z,62.06
2023-05-02T02:15:42.522Z,62.62
2023-05-02T02:20:47.249Z,62.21
2023-05-02T02:25:52.432Z,61.98
2023-05-02T02:30:54.516Z,61.52
2023-05-02T02:36:25.181Z,61.36
2023-05-02T02:41:42.817Z,61.03
2023-05-02T02:47:02.837Z,60.31
2023-05-02T02:52:15.708Z,60.27
2023-05-02T02:57:24.633Z,60.05
2023-05-02T03:02:31.244Z,59.55
2023-05-02T03:07:33.580Z,58.82
2023-05-02T03:12:37.599Z,59.46
2023-05-02T03:17:40.378Z,59.15
2023-05-02T03:22:42.460Z,58.42
2023-05-02T03:27:44.690Z,58.47
2023-05-02T03:32:47.774Z,57.62
2023-05-02T03:37:50.970Z,57.31
2023-05-02T03:42:53.085Z,57.42
2023-05-02T03:48:02.224Z,57.13
2023-05-02T03:53:05.672Z,56.43
2023-05-02T03:58:16.963Z,56.04
2023-05-02T04:03:21.581Z,55.93
2023-05-02T04:08:24.549Z,55.76
2023-05-02T04:13:26.700Z,54.79
2023-05-02T04:18:28.966Z,54.91
2023-05-02T04:23:31.097Z,54.16
2023-05-02T04:28:36.487Z,53.33
2023-05-02T04:33:39.442Z,53.59
2023-05-02T04:38:42.271Z,53.31
2023-05-02T04:43:45.171Z,52.73
2023-05-02T04:48:49.020Z,52.17
2023-05-02T04:53:51.276Z,51.79
2023-05-02T04:58:54.437Z,52.04
2023-05-02T05:03:57.347Z,50.69
2023-05-02T05:09:00.259Z,50.68
2023-05-02T05:14:04.357Z,48.85
2023-05-02T05:19:09.150Z,45.06
2023-05-02T05:24:11.337Z,41.80
2023-05-02T05:29:13.505Z,38.39
2023-05-02T05:34:18.220Z,35.84
2023-05-02T05:39:22.238Z,33.90
2023-05-02T05:44:27.330Z,31.58
2023-05-02T05:49:29.566Z,30.86
2023-05-02T05:54:31.851Z,29.31
2023-05-02T05:59:36.564Z,26.08
2023-05-02T06:04:40.544Z,26.01
2023-05-02T06:09:42.904Z,24.31
2023-05-02T06:14:45.058Z,23.20
2023-05-02T06:19:48.978Z,21.96
2023-05-02T06:24:51.150Z,21.79
2023-05-02T06:29:53.946Z,20.41
2023-05-02T06:34:56.137Z,19.47
2023-05-02T06:39:58.442Z,19.47
2023-05-02T06:45:00.888Z,19.17
2023-05-02T06:50:03.685Z,18.51
2023-05-02T06:55:06.442Z,17.76
2023-05-02T07:00:09.313Z,16.64
2023-05-02T07:05:11.614Z,16.91
2023-05-02T07:10:13.842Z,14.89
2023-05-02T07:15:17.142Z,15.11
2023-05-02T07:20:20.058Z,15.39
2023-05-02T07:25:22.110Z,14.31
2023-05-02T07:30:24.227Z,15.02
2023-05-02T07:35:26.446Z,13.38
2023-05-02T07:40:28.745Z,13.29
2023-05-02T07:45:30.937Z,12.53
2023-05-02T07:50:33.051Z,11.90
2023-05-02T07:55:35.203Z,11.22
2023-05-02T08:00:37.303Z,10.65
2023-05-02T08:05:39.305Z,10.91
2023-05-02T08:10:42.431Z,11.61
2023-05-02T08:15:44.812Z,10.88
2023-05-02T08:20:48.453Z,9.79
2023-05-02T08:25:50.676Z,9.62
2023-05-02T08:30:52.786Z,8.55
2023-05-02T08:35:54.980Z,8.45
2023-05-02T08:40:57.080Z,7.98
2023-05-02T08:46:00.467Z,8.39
2023-05-02T08:51:03.848Z,8.13
2023-05-02T08:56:10.434Z,8.00
2023-05-02T09:01:15.820Z,8.30
2023-05-02T09:06:19.791Z,8.24
2023-05-02T09:11:22.397Z,8.12
2023-05-02T09:16:27.305Z,8.36
2023-05-02T09:21:38.236Z,8.81
2023-05-02T09:26:40.598Z,8.01
2023-05-02T09:31:55.677Z,8.20
2023-05-02T09:36:58.903Z,7.45
2023-05-02T09:42:01.567Z,7.21
2023-05-02T09:47:03.861Z,6.84
2023-05-02T09:52:14.116Z,7.01
2023-05-02T09:57:16.600Z,7.43
2023-05-02T10:02:19.357Z,5.97
2023-05-02T10:07:21.699Z,5.93
2023-05-02T10:12:26.874Z,5.77
2023-05-02T10:17:32.342Z,6.66
2023-05-02T10:22:36.351Z,7.22
2023-05-02T10:27:38.621Z,6.83
2023-05-02T10:32:41.519Z,7.75
2023-05-02T10:37:45.608Z,9.49
2023-05-02T10:42:51.481Z,9.22
2023-05-02T10:48:13.548Z,8.27
2023-05-02T10:53:44.894Z,6.80
2023-05-02T10:58:51.423Z,6.81
2023-05-02T11:03:56.054Z,7.24
2023-05-02T11:09:30.906Z,7.29
2023-05-02T11:14:38.972Z,7.52
2023-05-02T11:19:43.733Z,6.72
2023-05-02T11:24:50.244Z,6.93
2023-05-02T11:29:53.817Z,6.37
2023-05-02T11:34:56.166Z,6.15
2023-05-02T11:40:11.989Z,6.71
2023-05-02T11:45:14.183Z,6.43
2023-05-02T11:50:17.028Z,7.46
2023-05-02T11:55:19.190Z,7.16
2023-05-02T12:00:27.717Z,7.15
2023-05-02T12:05:30.374Z,7.59
2023-05-02T12:10:38.966Z,7.59
2023-05-02T12:15:41.789Z,8.03
2023-05-02T12:20:45.265Z,8.45
2023-05-02T12:25:47.402Z,8.09
2023-05-02T12:30:51.370Z,7.68
2023-05-02T12:35:54.180Z,8.15
2023-05-02T12:40:59.240Z,8.68
2023-05-02T12:46:11.259Z,8.56
2023-05-02T12:51:28.729Z,9.03
2023-05-02T12:56:38.610Z,9.12
2023-05-02T13:01:41.530Z,10.10
2023-05-02T13:11:45.861Z,10.14
2023-05-02T13:16:49.432Z,10.46
2023-05-02T13:21:51.582Z,10.03
2023-05-02T13:26:53.601Z,10.67
2023-05-02T13:31:55.647Z,10.67
2023-05-02T13:36:57.840Z,11.41
2023-05-02T13:41:59.984Z,12.39
2023-05-02T13:47:02.073Z,13.69
2023-05-02T13:52:04.457Z,14.34
2023-05-02T13:57:06.620Z,15.33
2023-05-02T14:02:08.862Z,16.29
2023-05-02T14:07:11.446Z,17.12
2023-05-02T14:12:13.559Z,18.11
2023-05-02T14:17:15.674Z,17.94
2023-05-02T14:22:17.806Z,18.50
2023-05-02T14:27:19.939Z,18.72
2023-05-02T14:32:22.133Z,19.50
2023-05-02T14:37:24.294Z,18.83
2023-05-02T14:42:26.482Z,19.58
2023-05-02T14:47:31.273Z,19.74
2023-05-02T14:52:33.496Z,20.23
2023-05-02T14:57:35.740Z,19.86
2023-05-02T15:02:38.213Z,20.16
2023-05-02T15:07:40.337Z,19.97
2023-05-02T15:12:43.286Z,21.03
2023-05-02T15:17:45.360Z,20.93
2023-05-02T15:22:47.543Z,20.88
2023-05-02T15:27:50.332Z,21.07
2023-05-02T15:32:52.561Z,21.28
2023-05-02T15:37:55.594Z,21.16
2023-05-02T15:42:57.735Z,21.70
2023-05-02T15:48:00.025Z,21.92
2023-05-02T15:53:02.194Z,22.22
2023-05-02T15:58:04.421Z,22.85
2023-05-02T16:03:06.761Z,22.29
2023-05-02T16:08:09.015Z,22.66
2023-05-02T16:13:11.192Z,22.97
2023-05-02T16:18:13.308Z,22.96
2023-05-02T16:23:15.394Z,23.24
2023-05-02T16:28:17.596Z,23.74
2023-05-02T16:33:21.570Z,23.94
2023-05-02T16:38:23.748Z,23.60
2023-05-02T16:43:25.649Z,22.57
2023-05-02T16:48:27.822Z,24.10
2023-05-02T16:53:31.072Z,24.25
2023-05-02T16:58:33.240Z,24.71
2023-05-02T17:03:35.534Z,24.65
2023-05-02T17:08:38.229Z,24.86
2023-05-02T17:13:40.376Z,24.92
2023-05-02T17:18:42.298Z,22.92
2023-05-02T17:23:44.462Z,25.04
2023-05-02T17:28:46.525Z,25.77
2023-05-02T17:33:48.350Z,23.33
2023-05-02T17:38:50.399Z,25.37
2023-05-02T17:43:52.509Z,24.29
2023-05-02T17:48:54.483Z,25.66
2023-05-02T17:53:56.568Z,24.39
2023-05-02T17:59:00.532Z,26.36
2023-05-02T18:04:04.250Z,26.87
2023-05-02T18:09:07.387Z,26.64
2023-05-02T18:14:15.059Z,27.37
2023-05-02T18:19:17.571Z,26.81
2023-05-02T18:24:19.591Z,26.75
2023-05-02T18:29:21.751Z,27.38
2023-05-02T18:34:23.609Z,25.27
2023-05-02T18:39:25.951Z,27.72
2023-05-02T18:44:28.066Z,27.73
2023-05-02T18:49:30.165Z,28.60
2023-05-02T18:54:33.559Z,26.03
2023-05-02T18:59:35.559Z,28.94
2023-05-02T19:04:37.437Z,27.36
2023-05-02T19:09:40.420Z,29.33
2023-05-02T19:14:42.616Z,30.00
2023-05-02T19:19:48.083Z,30.50
2023-05-02T19:24:50.939Z,31.14
2023-05-02T19:29:54.391Z,30.55
2023-05-02T19:34:56.964Z,31.12
2023-05-02T19:39:59.437Z,31.12
2023-05-02T19:45:01.916Z,31.70
2023-05-02T19:50:06.733Z,32.08
2023-05-02T19:55:09.560Z,31.47
2023-05-02T20:00:13.018Z,32.45
2023-05-02T20:05:15.388Z,32.25
2023-05-02T20:10:18.490Z,32.32
2023-05-02T20:15:22.172Z,32.11
2023-05-02T20:20:25.132Z,32.53
2023-05-02T20:25:27.299Z,32.29
2023-05-02T20:30:29.402Z,32.23
2023-05-02T20:35:31.682Z,32.13
2023-05-02T20:40:34.106Z,32.67
2023-05-02T20:45:36.288Z,33.10
2023-05-02T20:50:38.170Z,30.49
2023-05-02T20:55:40.232Z,32.75
2023-05-02T21:00:42.300Z,30.21
2023-05-02T21:05:44.364Z,33.17
2023-05-02T21:10:46.389Z,30.73
2023-05-02T21:15:48.474Z,33.15
2023-05-02T21:20:50.734Z,33.26
2023-05-02T21:25:52.868Z,33.83
2023-05-02T21:30:54.808Z,30.69
2023-05-02T21:35:57.698Z,32.36
2023-05-02T21:41:04.772Z,32.51
2023-05-02T21:46:07.019Z,33.12
2023-05-02T21:51:11.474Z,32.16
2023-05-02T21:56:13.464Z,31.76
2023-05-02T22:01:16.109Z,30.65
2023-05-02T22:06:18.278Z,31.67
2023-05-02T22:11:21.775Z,30.31
2023-05-02T22:16:24.116Z,31.36
2023-05-02T22:21:27.318Z,32.54
2023-05-02T22:26:29.468Z,32.10
2023-05-02T22:31:31.879Z,32.69
2023-05-02T22:36:35.664Z,33.36
2023-05-02T22:41:39.298Z,32.80
2023-05-02T22:46:41.515Z,33.19
2023-05-02T22:51:45.266Z,33.44
2023-05-02T22:56:47.402Z,33.23
2023-05-02T23:01:50.825Z,33.24
2023-05-02T23:06:52.936Z,32.99
2023-05-02T23:11:55.087Z,32.74
2023-05-02T23:16:57.517Z,33.15
2023-05-02T23:22:00.020Z,33.40
2023-05-02T23:27:02.186Z,33.47
2023-05-02T23:32:04.827Z,31.84
2023-05-02T23:37:07.065Z,33.13
2023-05-02T23:42:09.099Z,33.93
2023-05-02T23:47:11.131Z,31.40
2023-05-02T23:52:13.246Z,33.18
2023-05-02T23:57:15.541Z,33.82
